createdAt,value
2018-11-25T00:01:54.033Z,4.50
2018-11-25T00:04:21.560Z,4.50
2018-11-25T00:06:49.073Z,4.50
2018-11-25T00:09:16.584Z,4.50
2018-11-25T00:11:44.189Z,4.50
2018-11-25T00:14:11.692Z,4.50
2018-11-25T00:16:39.193Z,4.50
2018-11-25T00:19:06.736Z,4.50
2018-11-25T00:21:35.320Z,4.50
2018-11-25T00:24:02.844Z,4.60
2018-11-25T00:26:30.360Z,4.60
2018-11-25T00:28:57.908Z,4.60
2018-11-25T00:31:26.504Z,4.60
2018-11-25T00:33:54.029Z,4.60
2018-11-25T00:36:21.521Z,4.50
2018-11-25T00:38:49.110Z,4.40
2018-11-25T00:41:16.604Z,4.40
2018-11-25T00:43:44.141Z,4.40
2018-11-25T00:46:11.680Z,4.40
2018-11-25T00:48:39.361Z,4.40
2018-11-25T00:51:06.968Z,4.40
2018-11-25T00:53:34.464Z,4.40
2018-11-25T00:56:02.005Z,4.40
2018-11-25T00:58:29.540Z,4.40
2018-11-25T01:01:05.000Z,4.40
2018-11-25T01:03:32.497Z,4.40
2018-11-25T01:06:00.038Z,4.40
2018-11-25T01:08:27.578Z,4.40
2018-11-25T01:10:55.124Z,4.40
2018-11-25T01:13:22.677Z,4.40
2018-11-25T01:15:50.191Z,4.30
2018-11-25T01:18:17.708Z,4.30
2018-11-25T01:20:45.296Z,4.30
2018-11-25T01:23:12.840Z,4.30
2018-11-25T01:25:40.373Z,4.30
2018-11-25T01:28:07.896Z,4.40
2018-11-25T01:30:35.501Z,4.50
2018-11-25T01:33:03.033Z,4.40
2018-11-25T01:35:30.621Z,4.40
2018-11-25T01:37:58.132Z,4.50
2018-11-25T01:40:27.705Z,4.40
2018-11-25T01:42:55.201Z,4.40
2018-11-25T01:45:22.697Z,4.40
2018-11-25T01:47:50.225Z,4.30
2018-11-25T01:50:18.033Z,4.30
2018-11-25T01:52:45.798Z,4.20
2018-11-25T01:55:13.892Z,4.20
2018-11-25T01:57:41.411Z,4.10
2018-11-25T02:00:13.151Z,4.10
2018-11-25T02:02:40.763Z,4.10
2018-11-25T02:05:08.288Z,4.20
2018-11-25T02:07:37.007Z,4.20
2018-11-25T02:10:09.745Z,4.20
2018-11-25T02:12:37.292Z,4.10
2018-11-25T02:15:05.693Z,4.10
2018-11-25T02:17:33.433Z,4.10
2018-11-25T02:20:00.996Z,4.10
2018-11-25T02:22:29.085Z,4.00
2018-11-25T02:24:56.026Z,4.00
2018-11-25T02:27:23.540Z,4.00
2018-11-25T02:29:51.163Z,4.00
2018-11-25T02:32:18.656Z,4.00
2018-11-25T02:34:46.184Z,4.00
2018-11-25T02:37:13.685Z,4.00
2018-11-25T02:39:41.201Z,4.00
2018-11-25T02:42:08.709Z,4.00
2018-11-25T02:44:36.248Z,4.10
2018-11-25T02:47:03.801Z,4.00
2018-11-25T02:49:31.316Z,4.00
2018-11-25T02:52:06.020Z,4.00
2018-11-25T02:54:33.540Z,3.90
2018-11-25T02:57:01.033Z,3.90
2018-11-25T02:59:28.572Z,3.80
2018-11-25T03:01:57.192Z,3.80
2018-11-25T03:04:24.708Z,3.80
2018-11-25T03:06:52.234Z,3.80
2018-11-25T03:09:19.738Z,3.90
2018-11-25T03:11:50.396Z,3.90
2018-11-25T03:14:17.939Z,3.90
2018-11-25T03:16:45.452Z,4.00
2018-11-25T03:19:12.989Z,4.00
2018-11-25T03:21:44.923Z,4.00
2018-11-25T03:24:12.456Z,4.00
2018-11-25T03:26:39.997Z,4.00
2018-11-25T03:29:07.509Z,4.00
2018-11-25T03:31:37.115Z,4.00
2018-11-25T03:34:05.084Z,3.90
2018-11-25T03:36:32.608Z,3.90
2018-11-25T03:39:00.191Z,3.90
2018-11-25T03:41:31.192Z,3.90
2018-11-25T03:43:58.713Z,3.90
2018-11-25T03:46:26.244Z,3.90
2018-11-25T03:48:53.743Z,3.90
2018-11-25T03:51:21.304Z,3.90
2018-11-25T03:53:48.829Z,3.90
2018-11-25T03:56:16.369Z,3.90
2018-11-25T03:58:43.917Z,3.90
2018-11-25T04:01:12.541Z,3.90
2018-11-25T04:03:40.042Z,3.90
2018-11-25T04:06:07.555Z,3.90
2018-11-25T04:08:35.053Z,3.90
2018-11-25T04:11:02.670Z,3.90
2018-11-25T04:13:30.201Z,3.90
2018-11-25T04:15:57.745Z,4.00
2018-11-25T04:18:25.241Z,4.00
2018-11-25T04:20:56.608Z,4.00
2018-11-25T04:23:24.117Z,4.00
2018-11-25T04:25:51.608Z,4.00
2018-11-25T04:28:19.140Z,4.00
2018-11-25T04:30:46.708Z,4.00
2018-11-25T04:33:14.237Z,4.00
2018-11-25T04:35:41.743Z,4.10
2018-11-25T04:38:09.248Z,4.10
2018-11-25T04:40:36.852Z,4.10
2018-11-25T04:43:04.754Z,4.10
2018-11-25T04:45:32.236Z,4.10
2018-11-25T04:47:59.753Z,4.10
2018-11-25T04:50:29.381Z,4.10
2018-11-25T04:52:56.911Z,4.10
2018-11-25T04:55:24.416Z,4.10
2018-11-25T04:57:52.800Z,4.10
2018-11-25T05:00:27.474Z,4.10
2018-11-25T05:02:55.008Z,4.10
2018-11-25T05:05:22.533Z,4.10
2018-11-25T05:07:50.075Z,4.10
2018-11-25T05:10:21.385Z,4.10
2018-11-25T05:12:48.912Z,4.10
2018-11-25T05:15:16.943Z,4.10
2018-11-25T05:17:44.465Z,4.20
2018-11-25T05:20:14.626Z,4.20
2018-11-25T05:22:42.145Z,4.20
2018-11-25T05:25:11.190Z,4.20
2018-11-25T05:27:38.699Z,4.20
2018-11-25T05:30:15.235Z,4.20
2018-11-25T05:32:42.768Z,4.20
2018-11-25T05:35:13.644Z,4.20
2018-11-25T05:37:41.189Z,4.20
2018-11-25T05:40:09.556Z,4.20
2018-11-25T05:42:37.060Z,4.20
2018-11-25T05:45:05.397Z,4.30
2018-11-25T05:47:32.896Z,4.30
2018-11-25T05:50:02.523Z,4.30
2018-11-25T05:52:30.034Z,4.30
2018-11-25T05:54:57.553Z,4.30
2018-11-25T05:57:25.060Z,4.30
2018-11-25T06:00:03.244Z,4.20
2018-11-25T06:02:30.756Z,4.30
2018-11-25T06:04:58.268Z,4.30
2018-11-25T06:07:25.810Z,4.20
2018-11-25T06:09:53.332Z,4.20
2018-11-25T06:12:20.868Z,4.30
2018-11-25T06:14:48.416Z,4.30
2018-11-25T06:17:15.942Z,4.30
2018-11-25T06:19:45.501Z,4.30
2018-11-25T06:22:13.033Z,4.30
2018-11-25T06:24:41.141Z,4.30
2018-11-25T06:27:08.654Z,4.30
2018-11-25T06:29:36.287Z,4.30
2018-11-25T06:32:03.833Z,4.30
2018-11-25T06:34:31.324Z,4.30
2018-11-25T06:36:58.841Z,4.30
2018-11-25T06:39:26.341Z,4.30
2018-11-25T06:41:55.933Z,4.30
2018-11-25T06:44:23.460Z,4.30
2018-11-25T06:46:50.993Z,4.30
2018-11-25T06:49:18.508Z,4.30
2018-11-25T06:51:46.029Z,4.20
2018-11-25T06:54:13.540Z,4.30
2018-11-25T06:56:41.068Z,4.30
2018-11-25T06:59:08.575Z,4.20
2018-11-25T07:01:36.179Z,4.30
2018-11-25T07:04:03.730Z,4.30
2018-11-25T07:06:31.268Z,4.30
2018-11-25T07:08:58.780Z,4.10
2018-11-25T07:12:50.876Z,4.10
2018-11-25T07:15:18.489Z,4.20
2018-11-25T07:17:46.045Z,4.20
2018-11-25T07:20:14.881Z,4.20
2018-11-25T07:22:42.412Z,4.10
2018-11-25T07:25:10.668Z,4.10
2018-11-25T07:27:38.244Z,4.10
2018-11-25T07:30:09.144Z,4.10
2018-11-25T07:32:36.669Z,4.10
2018-11-25T07:35:04.482Z,4.10
2018-11-25T07:37:32.001Z,4.10
2018-11-25T07:40:11.873Z,4.10
2018-11-25T07:42:39.424Z,4.10
2018-11-25T07:45:08.021Z,4.10
2018-11-25T07:47:35.559Z,4.10
2018-11-25T07:50:03.099Z,4.10
2018-11-25T07:52:30.616Z,4.10
2018-11-25T07:54:58.141Z,4.10
2018-11-25T07:57:25.685Z,4.10
2018-11-25T08:00:00.392Z,4.00
2018-11-25T08:02:27.915Z,3.90
2018-11-25T08:04:55.433Z,4.00
2018-11-25T08:07:22.953Z,3.90
2018-11-25T08:09:51.553Z,3.90
2018-11-25T08:12:19.145Z,3.80
2018-11-25T08:14:46.652Z,3.80
2018-11-25T08:17:14.176Z,3.80
2018-11-25T08:19:43.757Z,3.80
2018-11-25T08:22:11.305Z,3.80
2018-11-25T08:24:39.708Z,3.70
2018-11-25T08:27:07.235Z,3.80
2018-11-25T08:29:34.741Z,3.80
2018-11-25T08:32:02.249Z,3.80
2018-11-25T08:34:29.800Z,3.70
2018-11-25T08:36:57.333Z,3.70
2018-11-25T08:39:24.922Z,3.60
2018-11-25T08:41:56.889Z,3.60
2018-11-25T08:44:24.420Z,3.50
2018-11-25T08:46:51.913Z,3.50
2018-11-25T08:49:19.445Z,3.30
2018-11-25T08:51:54.233Z,3.40
2018-11-25T08:54:21.772Z,3.40
2018-11-25T08:56:49.278Z,3.40
2018-11-25T08:59:16.795Z,3.40
2018-11-25T09:01:44.329Z,3.50
2018-11-25T09:04:11.850Z,3.50
2018-11-25T09:06:39.345Z,3.60
2018-11-25T09:09:07.876Z,3.60
2018-11-25T09:11:37.476Z,3.60
2018-11-25T09:14:05.075Z,3.60
2018-11-25T09:16:32.600Z,3.40
2018-11-25T09:19:00.122Z,3.40
2018-11-25T09:21:35.156Z,3.30
2018-11-25T09:24:02.665Z,3.40
2018-11-25T09:26:30.156Z,3.50
2018-11-25T09:28:57.660Z,3.40
2018-11-25T09:31:32.955Z,3.50
2018-11-25T09:34:00.469Z,3.60
2018-11-25T09:36:27.973Z,3.60
2018-11-25T09:38:55.510Z,3.70
2018-11-25T09:41:38.070Z,3.70
2018-11-25T09:44:05.600Z,3.70
2018-11-25T09:46:33.105Z,3.70
2018-11-25T09:49:00.633Z,3.70
2018-11-25T09:51:29.205Z,3.70
2018-11-25T09:53:56.729Z,3.70
2018-11-25T09:56:24.256Z,3.70
2018-11-25T09:58:51.792Z,3.80
2018-11-25T10:01:27.560Z,3.70
2018-11-25T10:03:55.099Z,3.70
2018-11-25T10:06:22.605Z,3.70
2018-11-25T10:08:50.125Z,3.80
2018-11-25T10:11:25.268Z,3.80
2018-11-25T10:13:52.787Z,3.80
2018-11-25T10:16:20.292Z,3.90
2018-11-25T10:18:47.797Z,3.90
2018-11-25T10:21:17.341Z,3.90
2018-11-25T10:23:44.833Z,3.80
2018-11-25T10:26:12.349Z,3.90
2018-11-25T10:28:39.949Z,3.90
2018-11-25T10:31:12.120Z,3.90
2018-11-25T10:33:39.633Z,3.90
2018-11-25T10:36:07.132Z,4.00
2018-11-25T10:38:34.628Z,4.00
2018-11-25T10:41:05.614Z,4.10
2018-11-25T10:43:33.159Z,4.10
2018-11-25T10:46:00.675Z,4.20
2018-11-25T10:48:28.182Z,4.20
2018-11-25T10:50:55.741Z,4.10
2018-11-25T10:53:23.240Z,4.20
2018-11-25T10:55:50.802Z,4.20
2018-11-25T10:58:18.295Z,4.20
2018-11-25T11:00:51.449Z,4.20
2018-11-25T11:03:24.254Z,4.20
2018-11-25T11:06:57.844Z,4.20
2018-11-25T11:09:25.356Z,4.30
2018-11-25T11:11:52.908Z,4.20
2018-11-25T11:14:20.453Z,4.20
2018-11-25T11:16:53.857Z,4.20
2018-11-25T11:19:15.520Z,4.30
2018-11-25T11:21:44.050Z,4.40
2018-11-25T11:24:11.560Z,4.60
2018-11-25T11:26:39.187Z,4.70
2018-11-25T11:29:06.741Z,4.80
2018-11-25T11:31:34.344Z,4.70
2018-11-25T11:34:01.910Z,4.90
2018-11-25T11:36:29.441Z,4.90
2018-11-25T11:38:56.945Z,5.10
2018-11-25T11:41:27.897Z,5.20
2018-11-25T11:43:55.403Z,5.30
2018-11-25T11:46:22.900Z,5.20
2018-11-25T11:48:50.457Z,5.40
2018-11-25T11:51:25.306Z,5.50
2018-11-25T11:53:45.620Z,5.60
2018-11-25T11:56:13.220Z,5.50
2018-11-25T11:58:41.884Z,5.60
2018-11-25T12:01:09.516Z,5.60
2018-11-25T12:03:37.061Z,5.50
2018-11-25T12:06:04.681Z,5.30
2018-11-25T12:08:32.219Z,5.30
2018-11-25T12:10:59.760Z,5.30
2018-11-25T12:13:27.269Z,5.40
2018-11-25T12:15:54.773Z,5.50
2018-11-25T12:18:23.358Z,5.60
2018-11-25T12:20:54.463Z,5.90
2018-11-25T12:23:21.989Z,6.00
2018-11-25T12:25:56.333Z,6.20
2018-11-25T12:28:23.856Z,6.30
2018-11-25T12:31:07.063Z,6.30
2018-11-25T12:33:33.909Z,6.40
2018-11-25T12:36:01.416Z,6.40
2018-11-25T12:38:29.063Z,6.30
2018-11-25T12:41:00.444Z,6.30
2018-11-25T12:43:29.680Z,6.30
2018-11-25T12:45:57.305Z,6.30
2018-11-25T12:48:24.817Z,6.30
2018-11-25T12:50:52.453Z,6.40
2018-11-25T12:53:19.996Z,6.40
2018-11-25T12:55:47.533Z,6.40
2018-11-25T12:58:15.060Z,6.50
2018-11-25T13:00:43.283Z,6.50
2018-11-25T13:03:11.281Z,6.50
2018-11-25T13:05:45.614Z,6.30
2018-11-25T13:08:07.019Z,6.20
2018-11-25T13:10:35.609Z,6.30
2018-11-25T13:13:03.133Z,6.30
2018-11-25T13:15:32.730Z,6.20
2018-11-25T13:18:00.416Z,6.20
2018-11-25T13:20:27.937Z,6.20
2018-11-25T13:22:55.449Z,6.30
2018-11-25T13:25:22.976Z,6.30
2018-11-25T13:27:50.499Z,6.30
2018-11-25T13:30:26.897Z,6.40
2018-11-25T13:32:55.065Z,6.60
2018-11-25T13:35:22.744Z,6.70
2018-11-25T13:37:50.269Z,6.90
2018-11-25T13:40:17.840Z,7.10
2018-11-25T13:42:45.380Z,7.20
2018-11-25T13:45:12.928Z,7.30
2018-11-25T13:47:47.056Z,7.50
2018-11-25T13:50:15.964Z,7.60
2018-11-25T13:52:43.457Z,7.70
2018-11-25T13:55:18.490Z,7.80
2018-11-25T13:57:45.984Z,8.30
2018-11-25T14:00:20.551Z,8.90
2018-11-25T14:02:48.153Z,10.00
2018-11-25T14:05:15.846Z,10.10
2018-11-25T14:07:43.397Z,9.80
2018-11-25T14:10:12.328Z,9.40
2018-11-25T14:12:39.936Z,9.10
2018-11-25T14:15:08.981Z,8.70
2018-11-25T14:17:36.520Z,8.20
2018-11-25T14:20:09.735Z,7.90
2018-11-25T14:22:37.260Z,7.90
2018-11-25T14:25:06.363Z,7.90
2018-11-25T14:27:33.880Z,8.10
2018-11-25T14:30:02.489Z,8.30
2018-11-25T14:32:30.132Z,8.50
2018-11-25T14:34:57.628Z,8.60
2018-11-25T14:37:25.152Z,8.70
2018-11-25T14:39:52.741Z,8.50
2018-11-25T14:44:47.514Z,8.60
2018-11-25T14:47:15.063Z,8.80
2018-11-25T14:49:43.664Z,8.60
2018-11-25T14:52:11.184Z,8.30
2018-11-25T14:54:38.684Z,8.10
2018-11-25T14:57:06.196Z,7.70
2018-11-25T14:59:33.696Z,7.40
2018-11-25T15:02:03.230Z,7.30
2018-11-25T15:04:36.113Z,7.00
2018-11-25T15:06:58.341Z,6.80
2018-11-25T15:09:25.860Z,6.60
2018-11-25T15:11:53.504Z,6.30
2018-11-25T15:14:21.081Z,6.20
2018-11-25T15:16:48.625Z,6.00
2018-11-25T15:19:16.144Z,5.80
2018-11-25T15:21:44.715Z,5.60
2018-11-25T15:24:12.227Z,5.50
2018-11-25T15:26:39.868Z,5.30
2018-11-25T15:29:07.412Z,5.10
2018-11-25T15:31:34.957Z,5.00
2018-11-25T15:34:02.505Z,4.80
2018-11-25T15:36:29.993Z,4.60
2018-11-25T15:38:57.555Z,4.60
2018-11-25T15:41:26.152Z,4.40
2018-11-25T15:46:20.924Z,4.20
2018-11-25T15:48:48.444Z,4.10
2018-11-25T15:51:16.040Z,4.00
2018-11-25T15:53:43.572Z,4.00
2018-11-25T15:56:11.085Z,3.90
2018-11-25T15:58:38.648Z,3.80
2018-11-25T16:01:06.224Z,3.80
2018-11-25T16:03:33.749Z,3.70
2018-11-25T16:06:18.790Z,3.60
2018-11-25T16:08:46.300Z,3.40
2018-11-25T16:11:13.846Z,3.30
2018-11-25T16:13:41.386Z,3.20
2018-11-25T16:16:08.949Z,3.10
2018-11-25T16:18:36.491Z,2.90
2018-11-25T16:21:04.068Z,2.90
2018-11-25T16:23:31.617Z,2.80
2018-11-25T16:26:00.468Z,2.80
2018-11-25T16:28:31.051Z,2.70
2018-11-25T16:31:02.402Z,2.70
2018-11-25T16:33:29.925Z,2.70
2018-11-25T16:35:57.447Z,2.50
2018-11-25T16:38:24.960Z,2.40
2018-11-25T16:40:54.624Z,2.20
2018-11-25T16:43:22.141Z,2.20
2018-11-25T16:45:49.715Z,2.10
2018-11-25T16:48:17.232Z,2.10
2018-11-25T16:50:45.834Z,2.10
2018-11-25T16:53:13.350Z,2.00
2018-11-25T16:55:40.888Z,1.80
2018-11-25T16:58:08.408Z,1.70
2018-11-25T17:00:35.994Z,1.60
2018-11-25T17:03:03.508Z,1.70
2018-11-25T17:05:31.979Z,1.70
2018-11-25T17:08:01.449Z,1.70
2018-11-25T17:10:28.975Z,1.70
2018-11-25T17:12:56.502Z,1.70
2018-11-25T17:15:24.845Z,1.60
2018-11-25T17:17:52.428Z,1.60
2018-11-25T17:20:20.089Z,1.40
2018-11-25T17:22:47.657Z,1.40
2018-11-25T17:25:15.172Z,1.30
2018-11-25T17:27:42.831Z,1.20
2018-11-25T17:30:12.030Z,1.20
2018-11-25T17:32:39.569Z,1.10
2018-11-25T17:35:09.881Z,1.10
2018-11-25T17:37:37.446Z,1.00
2018-11-25T17:40:05.572Z,0.90
2018-11-25T17:42:33.100Z,0.90
2018-11-25T17:45:00.624Z,0.80
2018-11-25T17:47:28.144Z,0.80
2018-11-25T17:49:58.912Z,0.80
2018-11-25T17:52:26.573Z,0.70
2018-11-25T17:54:54.187Z,0.50
2018-11-25T17:57:21.861Z,0.50
2018-11-25T17:59:51.577Z,0.60
2018-11-25T18:02:19.280Z,0.60
2018-11-25T18:04:46.945Z,0.60
2018-11-25T18:07:14.612Z,0.50
2018-11-25T18:09:42.257Z,0.60
2018-11-25T18:12:10.011Z,0.70
2018-11-25T18:14:37.665Z,0.60
2018-11-25T18:17:07.323Z,0.50
2018-11-25T18:19:34.962Z,0.50
2018-11-25T18:22:03.973Z,0.50
2018-11-25T18:24:31.647Z,0.40
2018-11-25T18:26:59.302Z,0.50
2018-11-25T18:29:27.013Z,0.50
2018-11-25T18:31:55.712Z,0.40
2018-11-25T18:34:23.237Z,0.20
2018-11-25T18:36:50.754Z,0.10
2018-11-25T18:39:18.291Z,0.00
2018-11-25T18:41:47.925Z,-0.10
2018-11-25T18:44:15.469Z,-0.10
2018-11-25T18:46:47.562Z,-0.20
2018-11-25T18:49:10.708Z,-0.10
2018-11-25T18:51:38.320Z,0.00
2018-11-25T18:54:06.461Z,0.00
2018-11-25T18:56:33.965Z,0.10
2018-11-25T18:59:01.489Z,0.10
2018-11-25T19:01:34.629Z,-0.10
2018-11-25T19:04:02.149Z,-0.10
2018-11-25T19:06:29.655Z,-0.20
2018-11-25T19:08:57.216Z,-0.30
2018-11-25T19:11:24.868Z,-0.30
2018-11-25T19:16:19.701Z,-0.40
2018-11-25T19:18:47.240Z,-0.30
2018-11-25T19:21:16.881Z,-0.20
2018-11-25T19:23:44.388Z,-0.30
2018-11-25T19:26:11.916Z,-0.20
2018-11-25T19:28:39.510Z,-0.20
2018-11-25T19:31:07.085Z,-0.10
2018-11-25T19:33:36.693Z,0.00
2018-11-25T19:36:04.248Z,0.00
2018-11-25T19:38:31.809Z,0.20
2018-11-25T19:41:00.445Z,0.30
2018-11-25T19:43:27.939Z,0.40
2018-11-25T19:45:55.504Z,0.50
2018-11-25T19:48:23.038Z,0.50
2018-11-25T19:50:50.617Z,0.60
2018-11-25T19:53:18.159Z,0.60
2018-11-25T19:55:45.704Z,0.70
2018-11-25T19:58:13.237Z,0.80
2018-11-25T20:00:40.946Z,0.70
2018-11-25T20:03:08.506Z,0.70
2018-11-25T20:05:36.181Z,0.60
2018-11-25T20:08:04.435Z,0.60
2018-11-25T20:10:39.098Z,0.70
2018-11-25T20:13:07.487Z,0.80
2018-11-25T20:15:35.009Z,0.80
2018-11-25T20:18:02.509Z,0.80
2018-11-25T20:20:31.060Z,0.80
2018-11-25T20:22:58.575Z,0.90
2018-11-25T20:25:26.120Z,1.00
2018-11-25T20:27:54.672Z,1.10
2018-11-25T20:32:54.929Z,1.30
2018-11-25T20:35:22.458Z,1.30
2018-11-25T20:37:55.466Z,1.20
2018-11-25T20:40:26.420Z,1.20
2018-11-25T20:42:53.944Z,1.30
2018-11-25T20:45:27.184Z,1.30
2018-11-25T20:47:55.340Z,1.30
2018-11-25T20:50:26.696Z,1.40
2018-11-25T20:52:59.676Z,1.50
2018-11-25T20:55:27.209Z,1.50
2018-11-25T20:57:54.702Z,1.60
2018-11-25T21:00:34.925Z,1.60
2018-11-25T21:03:02.653Z,1.80
2018-11-25T21:05:30.189Z,1.80
2018-11-25T21:07:57.693Z,2.00
2018-11-25T21:10:26.141Z,2.10
2018-11-25T21:12:53.385Z,2.20
2018-11-25T21:15:20.870Z,2.30
2018-11-25T21:17:48.408Z,2.30
2018-11-25T21:20:33.413Z,2.50
2018-11-25T21:23:00.956Z,2.60
2018-11-25T21:25:28.456Z,2.60
2018-11-25T21:27:55.969Z,2.60
2018-11-25T21:30:25.786Z,2.60
2018-11-25T21:32:54.012Z,2.60
2018-11-25T21:35:21.516Z,2.70
2018-11-25T21:37:49.032Z,2.70
2018-11-25T21:40:18.108Z,2.70
2018-11-25T21:42:45.639Z,2.70
2018-11-25T21:45:13.617Z,2.80
2018-11-25T21:47:41.248Z,2.80
2018-11-25T21:50:09.553Z,2.70
2018-11-25T21:52:37.092Z,2.60
2018-11-25T21:55:04.718Z,2.50
2018-11-25T21:57:32.226Z,2.40
2018-11-25T22:00:11.160Z,2.40
2018-11-25T22:02:38.761Z,2.40
2018-11-25T22:05:06.874Z,2.30
2018-11-25T22:07:34.489Z,2.20
2018-11-25T22:10:02.313Z,2.20
2018-11-25T22:12:30.011Z,2.10
2018-11-25T22:14:57.692Z,2.00
2018-11-25T22:17:25.353Z,1.90
2018-11-25T22:20:02.780Z,1.90
2018-11-25T22:22:30.276Z,1.90
2018-11-25T22:24:57.804Z,1.70
2018-11-25T22:27:25.336Z,1.70
2018-11-25T22:29:52.925Z,1.60
2018-11-25T22:32:20.466Z,1.60
2018-11-25T22:34:47.991Z,1.50
2018-11-25T22:37:15.540Z,1.50
2018-11-25T22:39:43.197Z,1.40
2018-11-25T22:42:10.709Z,1.40
2018-11-25T22:44:38.221Z,1.30
2018-11-25T22:47:05.712Z,1.30
2018-11-25T22:49:33.245Z,1.30
2018-11-25T22:52:00.829Z,1.20
2018-11-25T22:54:28.365Z,1.20
2018-11-25T22:56:55.888Z,1.20
2018-11-25T22:59:23.389Z,1.20
2018-11-25T23:01:51.999Z,1.20
2018-11-25T23:04:25.184Z,1.20
2018-11-25T23:06:58.305Z,1.20
2018-11-25T23:09:25.804Z,1.20
2018-11-25T23:11:53.396Z,1.20
2018-11-25T23:14:20.904Z,1.20
2018-11-25T23:16:48.440Z,1.10
2018-11-25T23:19:15.981Z,1.10
2018-11-25T23:21:45.593Z,1.10
2018-11-25T23:24:13.168Z,1.10
2018-11-25T23:26:40.748Z,1.10
2018-11-25T23:29:08.264Z,1.10
2018-11-25T23:31:39.709Z,1.10
2018-11-25T23:34:07.360Z,1.10
2018-11-25T23:36:35.184Z,1.00
2018-11-25T23:39:02.779Z,0.90
2018-11-25T23:41:31.401Z,0.90
2018-11-25T23:43:58.900Z,0.90
2018-11-25T23:46:26.412Z,0.90
2018-11-25T23:48:53.916Z,0.90
2018-11-25T23:51:23.464Z,0.80
2018-11-25T23:53:51.020Z,0.80
2018-11-25T23:56:18.561Z,0.80
2018-11-25T23:58:46.068Z,0.80
